Time;durP1;ratioP1;P1;durP2;ratioP2;P2;SDS_P1;SDS_P2;PMS_P1;PMS_P2;Temp;Humidity;BMP_temperature;BMP_pressure;BME280_temperature;BME280_humidity;BME280_pressure;Samples;Min_cycle;Max_cycle;Signal;HPM_P1;HPM_P2
2022/03/05 00:00:08;;;;;;;14.20;7.38;;;6.10;92.80;;;;;;5099996;28;20223;-62
2022/03/05 00:02:35;;;;;;;10.65;7.15;;;6.00;92.80;;;;;;5112010;27;20223;-62
2022/03/05 00:05:02;;;;;;;10.50;6.25;;;6.00;93.00;;;;;;5112150;27;20222;-62
2022/03/05 00:07:28;;;;;;;7.03;5.75;;;5.90;93.10;;;;;;5111098;28;20576;-62
2022/03/05 00:09:56;;;;;;;8.02;6.88;;;5.90;93.40;;;;;;5100727;27;20222;-62
2022/03/05 00:12:23;;;;;;;11.20;6.68;;;5.90;93.80;;;;;;5112654;28;20234;-62
2022/03/05 00:14:50;;;;;;;10.80;6.40;;;5.80;93.50;;;;;;5102874;28;20228;-62
2022/03/05 00:17:18;;;;;;;9.90;6.60;;;5.80;93.70;;;;;;5108368;27;20226;-62
2022/03/05 00:19:45;;;;;;;12.30;6.13;;;5.80;93.80;;;;;;5112127;27;20672;-63
2022/03/05 00:22:12;;;;;;;8.82;5.95;;;5.80;93.70;;;;;;5111851;27;20227;-62
2022/03/05 00:24:42;;;;;;;6.35;5.72;;;5.70;94.20;;;;;;5112487;28;20810;-63
2022/03/05 00:27:09;;;;;;;7.72;6.20;;;5.70;93.90;;;;;;5099009;28;20678;-63
2022/03/05 00:29:36;;;;;;;11.50;6.80;;;5.70;94.10;;;;;;5108659;27;20224;-62
2022/03/05 00:32:03;;;;;;;6.43;5.68;;;5.60;94.00;;;;;;5112400;28;20230;-62
2022/03/05 00:34:32;;;;;;;8.57;6.25;;;5.60;94.10;;;;;;5112753;28;20593;-63
2022/03/05 00:36:58;;;;;;;7.40;5.75;;;5.60;94.10;;;;;;5101861;27;20216;-62
2022/03/05 00:39:25;;;;;;;8.98;6.00;;;5.50;94.20;;;;;;5112188;28;20693;-62
2022/03/05 00:41:52;;;;;;;7.22;5.75;;;5.50;94.40;;;;;;5112068;28;20238;-63
2022/03/05 00:44:21;;;;;;;8.07;6.03;;;5.50;94.40;;;;;;5112644;27;20680;-63
2022/03/05 00:46:48;;;;;;;10.23;6.18;;;5.40;94.50;;;;;;5113210;28;20220;-62
2022/03/05 00:49:15;;;;;;;8.15;6.75;;;5.30;94.70;;;;;;5112654;28;20211;-62
2022/03/05 00:51:43;;;;;;;8.07;7.00;;;5.30;94.80;;;;;;5115211;27;20584;-62
2022/03/05 00:54:10;;;;;;;9.32;6.32;;;5.20;94.80;;;;;;5102813;28;20218;-62
2022/03/05 00:56:37;;;;;;;8.40;6.40;;;5.30;94.80;;;;;;5114425;27;20553;-62
2022/03/05 00:59:06;;;;;;;10.27;6.18;;;5.30;95.00;;;;;;5113825;27;20255;-63
2022/03/05 01:01:33;;;;;;;6.55;5.88;;;5.20;95.10;;;;;;5115525;28;20227;-62
2022/03/05 01:04:00;;;;;;;11.45;6.30;;;5.20;95.20;;;;;;5115573;28;20226;-62
2022/03/05 01:06:30;;;;;;;9.68;6.22;;;5.10;95.30;;;;;;5113225;27;20271;-62
2022/03/05 01:08:58;;;;;;;9.63;6.50;;;5.10;95.40;;;;;;5109828;27;20219;-62
2022/03/05 01:11:25;;;;;;;8.90;6.22;;;5.20;95.40;;;;;;5110393;28;20571;-62
2022/03/05 01:13:52;;;;;;;9.10;6.93;;;5.10;95.40;;;;;;5114823;27;20408;-62
2022/03/05 01:16:19;;;;;;;9.68;7.15;;;5.10;95.70;;;;;;5115440;28;20237;-62
2022/03/05 01:18:46;;;;;;;7.97;5.50;;;5.10;95.70;;;;;;5114877;27;20219;-62
2022/03/05 01:21:13;;;;;;;9.13;6.13;;;5.00;95.70;;;;;;5115336;27;20223;-62
2022/03/05 01:23:40;;;;;;;10.98;6.65;;;5.00;95.80;;;;;;5113791;27;20314;-62
2022/03/05 01:26:08;;;;;;;8.68;5.75;;;5.00;96.00;;;;;;5115248;27;20685;-62
2022/03/05 01:28:35;;;;;;;11.45;7.45;;;5.00;96.10;;;;;;5115378;27;20222;-62
2022/03/05 01:31:02;;;;;;;11.07;6.38;;;5.00;96.20;;;;;;5115095;27;20223;-62
2022/03/05 01:33:30;;;;;;;8.95;6.22;;;4.90;96.30;;;;;;5107658;27;20220;-62
2022/03/05 01:35:57;;;;;;;7.45;6.35;;;4.90;96.40;;;;;;5102063;28;20212;-63
2022/03/05 01:38:24;;;;;;;7.72;6.15;;;4.90;96.40;;;;;;5115513;27;20280;-62
2022/03/05 01:40:51;;;;;;;7.97;6.57;;;4.90;96.80;;;;;;5114451;27;20692;-62
2022/03/05 01:43:23;;;;;;;17.08;8.65;;;4.90;96.60;;;;;;5114776;27;20223;-62
2022/03/05 01:45:50;;;;;;;6.95;5.90;;;4.90;96.60;;;;;;5114565;28;20676;-62
2022/03/05 01:48:17;;;;;;;11.63;7.25;;;4.90;96.60;;;;;;5114278;27;20215;-62
2022/03/05 01:50:43;;;;;;;10.88;6.72;;;4.90;96.70;;;;;;5114141;27;20227;-63
2022/03/05 01:53:10;;;;;;;9.85;6.20;;;4.90;96.80;;;;;;5114319;27;20223;-62
2022/03/05 01:55:37;;;;;;;8.93;6.00;;;4.90;96.90;;;;;;5112954;27;20220;-62
2022/03/05 01:58:04;;;;;;;9.90;7.53;;;4.90;96.90;;;;;;5113108;27;20223;-62
2022/03/05 02:00:32;;;;;;;6.80;5.95;;;4.90;97.00;;;;;;5114310;27;20242;-62
2022/03/05 02:02:59;;;;;;;7.75;6.47;;;4.90;97.00;;;;;;5103579;28;20693;-63
2022/03/05 02:05:26;;;;;;;8.27;6.53;;;4.90;97.00;;;;;;5112902;27;20220;-62
2022/03/05 02:07:53;;;;;;;9.82;5.38;;;4.90;97.00;;;;;;5114461;27;20238;-62
2022/03/05 02:10:20;;;;;;;9.07;7.03;;;4.90;97.10;;;;;;5104054;27;20227;-62
2022/03/05 02:12:47;;;;;;;12.60;6.78;;;4.90;97.20;;;;;;5114183;27;20260;-63
2022/03/05 02:15:14;;;;;;;8.63;5.80;;;4.80;97.30;;;;;;5110046;28;20235;-62
2022/03/05 02:17:42;;;;;;;10.25;7.15;;;4.80;97.20;;;;;;5109417;27;20219;-62
2022/03/05 02:20:09;;;;;;;8.27;6.80;;;4.80;97.20;;;;;;5114505;28;20230;-62
2022/03/05 02:22:40;;;;;;;12.80;8.20;;;4.80;97.30;;;;;;5114174;28;20227;-62
2022/03/05 02:25:07;;;;;;;8.88;7.60;;;4.80;97.30;;;;;;5107568;28;21047;-62
2022/03/05 02:27:34;;;;;;;8.18;7.13;;;4.80;97.40;;;;;;5112942;27;20230;-63
2022/03/05 02:30:01;;;;;;;9.25;5.60;;;4.80;97.50;;;;;;5113684;28;20569;-62
2022/03/05 02:32:28;;;;;;;7.97;6.43;;;4.70;97.50;;;;;;5113897;27;20243;-62
2022/03/05 02:34:55;;;;;;;10.60;7.05;;;4.70;97.50;;;;;;5113720;27;20681;-62
2022/03/05 02:37:22;;;;;;;6.38;5.57;;;4.70;97.50;;;;;;5113468;27;20234;-62
2022/03/05 02:39:50;;;;;;;7.93;6.38;;;4.60;97.80;;;;;;5113472;28;20227;-62
2022/03/05 02:42:17;;;;;;;7.95;6.13;;;4.60;97.90;;;;;;5103624;28;20676;-62
2022/03/05 02:44:45;;;;;;;7.80;5.40;;;4.60;97.90;;;;;;5113321;28;20684;-63
2022/03/05 02:47:12;;;;;;;8.65;6.10;;;4.60;98.10;;;;;;5113774;28;20222;-62
2022/03/05 02:49:39;;;;;;;7.45;5.75;;;4.60;98.20;;;;;;5108873;27;20744;-62
2022/03/05 02:52:06;;;;;;;9.18;6.15;;;4.50;98.30;;;;;;5112835;28;20238;-62
2022/03/05 02:54:33;;;;;;;10.07;6.10;;;4.50;98.40;;;;;;5112753;27;20287;-62
2022/03/05 02:57:02;;;;;;;10.20;7.43;;;4.50;98.50;;;;;;5106472;27;20226;-62
2022/03/05 02:59:28;;;;;;;11.23;6.88;;;4.50;98.50;;;;;;5113757;28;20246;-63
2022/03/05 03:01:55;;;;;;;7.95;6.60;;;4.50;98.60;;;;;;5099349;28;20232;-62
2022/03/05 03:04:22;;;;;;;10.23;6.65;;;4.50;98.70;;;;;;5113471;27;20239;-62
2022/03/05 03:06:50;;;;;;;8.35;6.57;;;4.50;98.60;;;;;;5111230;28;20234;-62
2022/03/05 03:09:17;;;;;;;7.88;6.13;;;4.50;98.80;;;;;;5096260;28;20310;-62
2022/03/05 03:11:43;;;;;;;8.77;7.22;;;4.50;98.90;;;;;;5113188;27;20382;-62
2022/03/05 03:14:12;;;;;;;9.48;7.22;;;4.40;99.10;;;;;;5112511;27;20225;-62
2022/03/05 03:16:38;;;;;;;10.00;7.72;;;4.40;99.20;;;;;;5107458;27;20502;-62
2022/03/05 03:19:05;;;;;;;9.23;7.22;;;4.40;99.30;;;;;;5112986;28;20573;-62
2022/03/05 03:21:32;;;;;;;8.52;6.05;;;4.40;99.30;;;;;;5101440;28;20223;-62
2022/03/05 03:23:59;;;;;;;7.88;6.43;;;4.40;99.30;;;;;;5112831;27;20597;-62
2022/03/05 03:26:25;;;;;;;9.02;6.82;;;4.40;99.40;;;;;;5110338;28;20235;-62
2022/03/05 03:28:52;;;;;;;8.90;6.40;;;4.40;99.30;;;;;;5107383;27;20222;-62
2022/03/05 03:31:21;;;;;;;7.75;6.30;;;4.40;99.50;;;;;;5112940;27;20227;-62
2022/03/05 03:33:47;;;;;;;9.63;7.30;;;4.40;99.60;;;;;;5112582;27;20227;-61
2022/03/05 03:36:14;;;;;;;9.75;7.05;;;4.40;99.70;;;;;;5108743;27;20223;-62
2022/03/05 03:38:41;;;;;;;9.73;7.35;;;4.30;99.80;;;;;;5113159;28;20220;-62
2022/03/05 03:41:08;;;;;;;11.05;7.40;;;4.30;99.90;;;;;;5099012;28;20234;-62
2022/03/05 03:43:38;;;;;;;9.15;7.80;;;4.30;99.90;;;;;;5112247;27;20227;-62
2022/03/05 03:46:06;;;;;;;9.10;7.35;;;4.30;99.90;;;;;;5112559;27;20294;-62
2022/03/05 03:48:34;;;;;;;10.75;7.57;;;4.30;99.90;;;;;;5113033;28;20572;-62
2022/03/05 03:51:01;;;;;;;9.48;7.63;;;4.30;99.90;;;;;;5112455;28;20241;-62
2022/03/05 03:53:29;;;;;;;13.05;8.00;;;4.20;99.90;;;;;;5109275;27;20224;-62
2022/03/05 03:55:59;;;;;;;9.90;6.95;;;4.30;99.90;;;;;;5112146;27;20688;-62
2022/03/05 03:58:29;;;;;;;8.73;6.95;;;4.30;99.90;;;;;;5112813;27;20230;-62
2022/03/05 04:00:59;;;;;;;12.77;8.07;;;4.20;99.90;;;;;;5098769;28;20318;-62
2022/03/05 04:03:26;;;;;;;11.30;7.15;;;4.20;99.90;;;;;;5112589;28;20687;-62
2022/03/05 04:05:55;;;;;;;9.38;6.95;;;4.20;99.90;;;;;;5107769;27;20653;-62
2022/03/05 04:11:10;;;;;;;11.77;7.78;;;4.20;99.90;;;;;;5104452;27;20218;-62
2022/03/05 04:13:40;;;;;;;8.10;7.22;;;4.20;99.90;;;;;;5111564;27;20227;-62
2022/03/05 04:16:11;;;;;;;13.90;7.72;;;4.20;99.90;;;;;;5111641;27;20231;-62
2022/03/05 04:18:42;;;;;;;9.88;7.57;;;4.20;99.90;;;;;;5112586;28;20231;-62
2022/03/05 04:21:11;;;;;;;8.73;7.53;;;4.20;99.90;;;;;;5111058;27;20226;-62
2022/03/05 04:23:40;;;;;;;8.18;7.38;;;4.20;99.90;;;;;;5116413;27;20306;-62
2022/03/05 04:26:10;;;;;;;12.05;7.80;;;4.20;99.90;;;;;;5114976;27;20720;-62
2022/03/05 04:28:41;;;;;;;12.55;7.38;;;4.20;99.90;;;;;;5110490;28;20306;-62
2022/03/05 04:31:13;;;;;;;10.00;8.13;;;4.20;99.90;;;;;;5115282;27;20683;-62
2022/03/05 04:33:43;;;;;;;11.73;8.27;;;4.20;99.90;;;;;;5116378;27;20227;-62
2022/03/05 04:36:16;;;;;;;13.20;9.52;;;4.10;99.90;;;;;;5107778;28;20308;-62
2022/03/05 04:38:46;;;;;;;14.15;9.45;;;4.10;99.90;;;;;;5115460;27;20238;-62
2022/03/05 04:41:14;;;;;;;9.20;8.30;;;4.10;99.90;;;;;;5115644;27;20223;-62
2022/03/05 04:43:42;;;;;;;9.48;8.43;;;4.00;99.90;;;;;;5105350;28;20228;-62
2022/03/05 04:46:13;;;;;;;12.35;8.32;;;4.00;99.90;;;;;;5108845;28;20215;-62
2022/03/05 04:48:43;;;;;;;21.65;13.98;;;4.00;99.90;;;;;;5115148;27;20268;-62
2022/03/05 04:51:13;;;;;;;14.88;8.20;;;4.00;99.90;;;;;;5114989;27;20925;-62
2022/03/05 04:53:43;;;;;;;8.95;6.82;;;3.90;99.90;;;;;;5115819;27;20222;-62
2022/03/05 04:56:13;;;;;;;10.43;7.80;;;4.00;99.90;;;;;;5108558;27;20223;-62
2022/03/05 04:58:45;;;;;;;9.60;8.00;;;4.00;99.90;;;;;;5115623;27;20574;-62
2022/03/05 05:01:15;;;;;;;7.53;6.70;;;4.00;99.90;;;;;;5115328;27;20226;-62
2022/03/05 05:03:45;;;;;;;10.77;8.55;;;4.00;99.90;;;;;;5101266;28;20253;-62
2022/03/05 05:06:14;;;;;;;14.77;9.10;;;3.90;99.90;;;;;;5102813;28;20276;-63
2022/03/05 05:08:41;;;;;;;8.75;7.80;;;3.90;99.90;;;;;;5106955;28;20231;-63
2022/03/05 05:11:08;;;;;;;9.50;8.30;;;3.90;99.90;;;;;;5111730;28;20238;-62
2022/03/05 05:13:35;;;;;;;10.80;8.15;;;3.90;99.90;;;;;;5110322;27;20566;-63
2022/03/05 05:16:02;;;;;;;10.90;8.27;;;3.90;99.90;;;;;;5113154;27;20246;-63
2022/03/05 05:18:29;;;;;;;13.32;9.20;;;3.90;99.90;;;;;;5112400;28;20242;-63
2022/03/05 05:20:56;;;;;;;10.32;7.45;;;3.90;99.90;;;;;;5109745;27;20240;-63
2022/03/05 05:23:24;;;;;;;14.35;8.25;;;3.90;99.90;;;;;;5113720;28;20223;-63
2022/03/05 05:25:51;;;;;;;16.10;8.00;;;3.90;99.90;;;;;;5104067;28;20579;-63
2022/03/05 05:28:18;;;;;;;11.40;8.90;;;3.90;99.90;;;;;;5101357;28;20558;-62
2022/03/05 05:30:45;;;;;;;11.57;8.00;;;3.90;99.90;;;;;;5106153;28;20311;-62
2022/03/05 05:33:12;;;;;;;12.02;7.28;;;3.90;99.90;;;;;;5112180;28;20227;-62
2022/03/05 05:35:38;;;;;;;8.60;7.68;;;3.90;99.90;;;;;;5105662;28;20216;-62
2022/03/05 05:38:05;;;;;;;12.85;9.00;;;3.90;99.90;;;;;;5112633;27;20596;-62
2022/03/05 05:40:34;;;;;;;10.05;9.05;;;3.90;99.90;;;;;;5105217;28;20232;-63
2022/03/05 05:43:00;;;;;;;13.63;9.13;;;3.80;99.90;;;;;;5108055;28;20243;-63
2022/03/05 05:45:27;;;;;;;17.65;10.40;;;3.90;99.90;;;;;;5113849;27;20223;-62
2022/03/05 05:47:54;;;;;;;11.20;7.90;;;3.80;99.90;;;;;;5111372;28;20224;-63
2022/03/05 05:50:21;;;;;;;12.20;9.18;;;3.80;99.90;;;;;;5108954;27;20912;-62
2022/03/05 05:52:48;;;;;;;12.48;9.35;;;3.80;99.90;;;;;;5110649;28;20223;-62
2022/03/05 05:55:14;;;;;;;11.15;7.90;;;3.80;99.90;;;;;;5110397;27;20219;-63
2022/03/05 05:57:42;;;;;;;14.93;9.40;;;3.80;99.90;;;;;;5114905;27;20700;-63
2022/03/05 06:00:11;;;;;;;14.18;8.23;;;3.80;99.90;;;;;;5109291;27;20227;-64
2022/03/05 06:02:38;;;;;;;11.85;9.05;;;3.80;99.90;;;;;;5114801;27;20231;-63
2022/03/05 06:05:05;;;;;;;9.52;8.10;;;3.80;99.90;;;;;;5100630;28;20227;-62
2022/03/05 06:07:32;;;;;;;10.85;8.55;;;3.80;99.90;;;;;;5114322;28;20227;-63
2022/03/05 06:09:59;;;;;;;10.48;8.35;;;3.80;99.90;;;;;;5102672;27;20223;-62
2022/03/05 06:12:26;;;;;;;12.00;8.75;;;3.70;99.90;;;;;;5113896;28;20560;-62
2022/03/05 06:14:54;;;;;;;10.70;8.30;;;3.70;99.90;;;;;;5106014;27;20688;-63
2022/03/05 06:17:21;;;;;;;13.00;9.77;;;3.80;99.90;;;;;;5113968;27;20250;-64
2022/03/05 06:19:48;;;;;;;10.80;9.32;;;3.80;99.90;;;;;;5102199;28;20240;-63
2022/03/05 06:22:15;;;;;;;11.18;7.35;;;3.70;99.90;;;;;;5107312;28;20600;-63
2022/03/05 06:24:42;;;;;;;10.30;8.20;;;3.70;99.90;;;;;;5106798;28;20223;-63
2022/03/05 06:27:09;;;;;;;12.23;8.70;;;3.70;99.90;;;;;;5100383;28;20229;-63
2022/03/05 06:29:36;;;;;;;11.70;9.20;;;3.70;99.90;;;;;;5101306;28;20310;-63
2022/03/05 06:32:04;;;;;;;10.73;9.05;;;3.70;99.90;;;;;;5113459;28;20219;-63
2022/03/05 06:34:31;;;;;;;10.70;9.15;;;3.70;99.90;;;;;;5114142;28;20561;-63
2022/03/05 06:37:00;;;;;;;12.88;9.10;;;3.70;99.90;;;;;;5102388;27;20223;-62
2022/03/05 06:39:27;;;;;;;13.55;9.65;;;3.80;99.90;;;;;;5112711;28;20215;-62
2022/03/05 06:41:54;;;;;;;11.60;8.38;;;3.80;99.90;;;;;;5101887;28;20223;-62
2022/03/05 06:44:21;;;;;;;10.52;9.43;;;3.80;99.90;;;;;;5099203;27;20224;-62
2022/03/05 06:46:47;;;;;;;10.45;8.80;;;3.80;99.90;;;;;;5105476;27;20219;-63
2022/03/05 06:49:16;;;;;;;10.25;8.75;;;3.80;99.90;;;;;;5108868;27;20233;-64
2022/03/05 06:51:43;;;;;;;13.05;8.48;;;3.80;99.90;;;;;;5113779;28;20564;-64
2022/03/05 06:54:10;;;;;;;11.38;8.95;;;3.90;99.90;;;;;;5099786;28;20222;-63
2022/03/05 06:56:37;;;;;;;13.15;9.18;;;3.80;99.90;;;;;;5113475;27;20219;-63
2022/03/05 06:59:04;;;;;;;13.15;9.82;;;3.80;99.90;;;;;;5111782;27;20219;-61
2022/03/05 07:01:30;;;;;;;12.35;9.05;;;3.80;99.90;;;;;;5111040;28;20569;-62
2022/03/05 07:03:57;;;;;;;10.93;9.10;;;3.80;99.90;;;;;;5102518;28;20216;-62
2022/03/05 07:06:25;;;;;;;16.75;11.25;;;3.80;99.90;;;;;;5106211;28;20240;-62
2022/03/05 07:08:52;;;;;;;15.82;11.68;;;3.90;99.90;;;;;;5103785;28;20219;-63
2022/03/05 07:11:19;;;;;;;18.42;16.55;;;3.90;99.90;;;;;;5097653;28;20227;-62
2022/03/05 07:13:46;;;;;;;16.65;13.55;;;4.00;99.90;;;;;;5100979;28;20692;-62
2022/03/05 07:16:12;;;;;;;16.23;12.27;;;4.00;99.90;;;;;;5111361;27;20223;-62
2022/03/05 07:18:40;;;;;;;16.67;14.00;;;4.00;99.90;;;;;;5112332;28;20724;-63
2022/03/05 07:21:06;;;;;;;26.50;22.10;;;4.00;99.90;;;;;;5110919;27;20227;-63
2022/03/05 07:23:35;;;;;;;17.50;15.35;;;4.00;99.90;;;;;;5113495;28;20222;-63
2022/03/05 07:26:01;;;;;;;20.13;17.05;;;4.00;99.90;;;;;;5113091;27;20220;-62
2022/03/05 07:28:28;;;;;;;19.30;15.50;;;4.10;99.90;;;;;;5112174;28;20219;-63
2022/03/05 07:30:55;;;;;;;14.82;11.32;;;4.10;99.90;;;;;;5113456;28;20219;-64
2022/03/05 07:33:22;;;;;;;12.90;11.50;;;4.10;99.90;;;;;;5112874;27;20262;-63
2022/03/05 07:35:49;;;;;;;13.23;10.30;;;4.20;99.90;;;;;;5113553;28;20219;-62
2022/03/05 07:38:16;;;;;;;12.93;10.57;;;4.20;99.90;;;;;;5112853;28;20223;-63
2022/03/05 07:40:44;;;;;;;12.27;9.43;;;4.30;99.90;;;;;;5113267;28;20234;-64
2022/03/05 07:43:12;;;;;;;12.02;9.70;;;4.30;99.90;;;;;;5112848;28;20222;-63
2022/03/05 07:45:39;;;;;;;11.80;8.98;;;4.30;99.90;;;;;;5113261;28;20219;-63
2022/03/05 07:48:06;;;;;;;12.57;9.10;;;4.40;99.90;;;;;;5113193;28;20233;-63
2022/03/05 07:50:33;;;;;;;11.15;9.00;;;4.40;99.90;;;;;;5113168;28;21002;-64
2022/03/05 07:52:59;;;;;;;10.90;8.25;;;4.50;99.90;;;;;;5112965;28;20226;-63
2022/03/05 07:55:26;;;;;;;15.18;9.45;;;4.60;99.70;;;;;;5113307;28;20222;-63
2022/03/05 07:57:54;;;;;;;12.27;8.80;;;4.60;99.40;;;;;;5117279;27;20219;-64
2022/03/05 08:00:21;;;;;;;9.98;9.05;;;4.60;99.30;;;;;;5117041;28;20235;-62
2022/03/05 08:02:48;;;;;;;9.90;8.88;;;4.60;99.30;;;;;;5117149;28;20547;-64
2022/03/05 08:05:15;;;;;;;11.27;9.18;;;4.60;99.20;;;;;;5116809;28;20227;-63
2022/03/05 08:07:41;;;;;;;10.20;9.20;;;4.60;99.30;;;;;;5117057;28;20218;-62
2022/03/05 08:10:09;;;;;;;12.57;9.43;;;4.70;99.20;;;;;;5117063;28;20680;-63
2022/03/05 08:12:37;;;;;;;10.35;8.50;;;4.80;99.20;;;;;;5117053;28;20529;-63
2022/03/05 08:15:06;;;;;;;12.18;9.88;;;4.80;99.00;;;;;;5117007;28;20238;-64
2022/03/05 08:17:33;;;;;;;12.48;10.65;;;4.80;98.80;;;;;;5116717;28;20223;-63
2022/03/05 08:20:00;;;;;;;9.90;8.82;;;4.80;98.50;;;;;;5116955;27;20537;-63
2022/03/05 08:22:27;;;;;;;10.38;9.23;;;4.90;98.60;;;;;;5116399;28;20680;-63
2022/03/05 08:24:54;;;;;;;17.25;9.65;;;4.90;98.60;;;;;;5117036;28;20223;-63
2022/03/05 08:27:21;;;;;;;13.35;10.20;;;5.00;98.50;;;;;;5116473;27;20580;-63
2022/03/05 08:29:48;;;;;;;16.23;10.43;;;5.00;98.20;;;;;;5116743;27;20215;-62
2022/03/05 08:32:16;;;;;;;12.50;10.65;;;5.10;98.20;;;;;;5116467;27;20534;-63
2022/03/05 08:34:43;;;;;;;11.20;8.90;;;5.10;98.20;;;;;;5116588;28;20219;-63
2022/03/05 08:37:10;;;;;;;9.82;8.82;;;5.10;98.50;;;;;;5116457;27;20223;-63
2022/03/05 08:39:37;;;;;;;12.05;10.02;;;5.20;98.00;;;;;;5116287;28;20230;-62
2022/03/05 08:42:04;;;;;;;10.85;9.75;;;5.20;98.00;;;;;;5116510;28;20566;-62
2022/03/05 08:44:31;;;;;;;13.02;10.15;;;5.30;97.90;;;;;;5115899;27;20222;-64
2022/03/05 08:46:58;;;;;;;11.38;10.20;;;5.30;97.80;;;;;;5116556;28;20215;-63
2022/03/05 08:49:26;;;;;;;12.00;10.75;;;5.30;97.60;;;;;;5115867;28;20242;-64
2022/03/05 08:51:53;;;;;;;12.35;9.48;;;5.40;97.60;;;;;;5116265;28;20229;-64
2022/03/05 08:54:20;;;;;;;12.32;9.95;;;5.50;97.60;;;;;;5115958;28;20245;-64
2022/03/05 08:56:47;;;;;;;13.30;8.85;;;5.50;97.50;;;;;;5116510;28;20618;-62
2022/03/05 08:59:14;;;;;;;11.95;9.98;;;5.60;97.50;;;;;;5116124;28;20227;-63
2022/03/05 09:01:41;;;;;;;11.48;9.55;;;5.60;97.20;;;;;;5115834;27;20219;-62
2022/03/05 09:04:08;;;;;;;14.70;10.60;;;5.60;96.90;;;;;;5115925;28;20227;-63
2022/03/05 09:06:38;;;;;;;14.20;10.30;;;5.70;97.00;;;;;;5115720;28;20219;-63
2022/03/05 09:09:05;;;;;;;13.52;10.60;;;5.80;97.00;;;;;;5115629;28;20568;-63
2022/03/05 09:11:32;;;;;;;13.13;8.80;;;5.80;96.60;;;;;;5115418;28;20239;-63
2022/03/05 09:13:59;;;;;;;12.80;9.80;;;5.90;96.70;;;;;;5116121;27;20219;-63
2022/03/05 09:16:26;;;;;;;13.93;10.45;;;5.90;96.20;;;;;;5115450;27;20234;-63
2022/03/05 09:18:53;;;;;;;15.88;9.25;;;5.90;96.10;;;;;;5115713;28;20298;-64
2022/03/05 09:21:20;;;;;;;12.10;9.13;;;6.00;96.00;;;;;;5115484;28;20233;-63
2022/03/05 09:23:48;;;;;;;10.32;8.77;;;6.00;95.80;;;;;;5115746;28;20227;-62
2022/03/05 09:26:16;;;;;;;10.27;9.05;;;6.10;95.80;;;;;;5115693;27;20230;-63
2022/03/05 09:28:43;;;;;;;9.45;8.40;;;6.10;95.80;;;;;;5115361;28;20551;-62
2022/03/05 09:31:09;;;;;;;14.55;10.40;;;6.20;95.80;;;;;;5115595;28;20242;-64
2022/03/05 09:33:37;;;;;;;11.00;9.25;;;6.20;95.40;;;;;;5115119;28;20223;-64
2022/03/05 09:36:08;;;;;;;11.90;9.40;;;6.30;95.50;;;;;;5115663;27;20376;-63
2022/03/05 09:38:35;;;;;;;9.55;8.50;;;6.30;95.30;;;;;;5114931;27;20235;-62
2022/03/05 09:41:05;;;;;;;11.88;9.43;;;6.30;94.90;;;;;;5115424;28;20231;-63
2022/03/05 09:43:32;;;;;;;11.82;10.13;;;6.40;94.90;;;;;;5115007;28;20231;-63
2022/03/05 09:46:00;;;;;;;11.82;9.15;;;6.50;94.80;;;;;;5115229;28;20222;-63
2022/03/05 09:48:28;;;;;;;11.00;9.27;;;6.50;94.80;;;;;;5114831;28;20227;-63
2022/03/05 09:50:56;;;;;;;12.15;9.32;;;6.60;94.50;;;;;;5115492;28;20238;-64
2022/03/05 09:53:28;;;;;;;15.32;9.85;;;6.60;94.40;;;;;;5114518;28;20227;-64
2022/03/05 09:55:55;;;;;;;10.30;9.30;;;6.70;94.10;;;;;;5115057;28;20226;-63
2022/03/05 09:58:23;;;;;;;12.73;8.73;;;6.70;93.90;;;;;;5114583;28;20685;-62
2022/03/05 10:00:51;;;;;;;9.30;8.35;;;6.70;93.90;;;;;;5114891;28;20310;-64
2022/03/05 10:03:18;;;;;;;15.57;9.63;;;6.80;94.20;;;;;;5114924;27;20550;-64
2022/03/05 10:05:45;;;;;;;9.32;8.10;;;6.70;93.60;;;;;;5114808;27;20219;-64
2022/03/05 10:08:15;;;;;;;10.20;9.02;;;6.80;93.70;;;;;;5114760;28;20225;-64
2022/03/05 10:10:44;;;;;;;10.93;7.97;;;6.90;93.70;;;;;;5114420;27;20227;-64
2022/03/05 10:13:28;;;;;;;13.80;9.93;;;7.00;93.70;;;;;;5115033;27;20273;-64
2022/03/05 10:15:58;;;;;;;11.25;8.15;;;7.00;93.20;;;;;;5114650;28;20617;-64
2022/03/05 10:18:30;;;;;;;9.77;8.18;;;7.00;93.20;;;;;;5114372;28;20246;-64
2022/03/05 10:20:58;;;;;;;10.40;8.27;;;7.00;93.30;;;;;;5113709;28;20900;-64
2022/03/05 10:23:25;;;;;;;11.93;9.20;;;7.00;93.20;;;;;;5114672;27;20223;-64
2022/03/05 10:25:54;;;;;;;9.70;8.75;;;6.90;93.00;;;;;;5113997;27;20227;-64
2022/03/05 10:28:23;;;;;;;9.75;8.32;;;7.00;93.10;;;;;;5114390;28;20223;-64
2022/03/05 10:30:52;;;;;;;10.32;8.65;;;7.00;93.00;;;;;;5114029;28;20230;-64
2022/03/05 10:33:28;;;;;;;11.25;8.85;;;7.10;93.00;;;;;;5114577;28;20225;-64
2022/03/05 10:35:56;;;;;;;9.95;8.95;;;7.00;92.80;;;;;;5114080;28;20218;-64
2022/03/05 10:38:24;;;;;;;10.52;8.80;;;7.10;92.90;;;;;;5114116;28;20241;-62
2022/03/05 10:40:55;;;;;;;9.55;8.10;;;7.20;92.90;;;;;;5114103;28;20251;-63
2022/03/05 10:43:23;;;;;;;10.65;8.20;;;7.20;92.60;;;;;;5114211;28;20230;-63
2022/03/05 10:45:54;;;;;;;9.10;8.15;;;7.30;92.40;;;;;;5113599;28;20680;-63
2022/03/05 10:48:22;;;;;;;9.77;7.80;;;7.30;92.10;;;;;;5114168;28;20238;-63
2022/03/05 10:50:55;;;;;;;11.25;8.27;;;7.40;92.00;;;;;;5113615;28;20238;-63
2022/03/05 10:53:35;;;;;;;9.68;8.77;;;7.40;91.80;;;;;;5113840;28;20310;-63
2022/03/05 10:56:20;;;;;;;9.07;8.18;;;7.50;91.70;;;;;;5113746;28;20261;-63
2022/03/05 10:59:01;;;;;;;9.07;8.20;;;7.50;91.30;;;;;;5113549;28;20565;-63
2022/03/05 11:01:30;;;;;;;9.85;8.85;;;7.50;91.30;;;;;;5113837;27;20566;-63
2022/03/05 11:03:57;;;;;;;8.82;7.97;;;7.50;91.50;;;;;;5113348;28;20231;-64
2022/03/05 11:06:25;;;;;;;11.23;7.38;;;7.60;91.70;;;;;;5113737;28;20243;-64
2022/03/05 11:08:52;;;;;;;9.80;8.77;;;7.70;91.60;;;;;;5113106;28;20691;-64
2022/03/05 11:11:21;;;;;;;7.93;7.13;;;7.80;91.60;;;;;;5113730;28;20234;-64
2022/03/05 11:13:48;;;;;;;8.95;7.97;;;7.80;90.80;;;;;;5113134;28;20219;-64
2022/03/05 11:16:15;;;;;;;8.68;7.75;;;7.90;90.90;;;;;;5113341;27;20219;-63
2022/03/05 11:18:43;;;;;;;9.00;8.13;;;7.90;90.80;;;;;;5113113;28;20557;-63
2022/03/05 11:21:11;;;;;;;9.18;8.00;;;8.10;90.80;;;;;;5113429;27;20558;-64
2022/03/05 11:23:40;;;;;;;8.02;7.20;;;8.00;90.10;;;;;;5113533;28;20246;-63
2022/03/05 11:26:08;;;;;;;8.90;7.22;;;8.00;90.00;;;;;;5113219;28;20285;-63
2022/03/05 11:28:36;;;;;;;7.25;6.55;;;8.00;89.50;;;;;;5113434;28;20221;-62
2022/03/05 11:31:15;;;;;;;8.55;7.20;;;8.00;89.30;;;;;;5112561;28;20231;-63
2022/03/05 11:33:45;;;;;;;7.80;7.00;;;8.10;88.70;;;;;;5113518;28;20287;-63
2022/03/05 11:36:30;;;;;;;8.13;7.18;;;8.10;88.50;;;;;;5113099;27;20323;-64
2022/03/05 11:39:07;;;;;;;8.48;7.65;;;8.10;88.60;;;;;;5112678;28;20226;-63
2022/03/05 11:41:51;;;;;;;9.60;6.40;;;7.90;87.50;;;;;;5113100;28;20669;-63
2022/03/05 11:44:19;;;;;;;6.40;5.80;;;7.90;87.10;;;;;;5112954;28;20215;-63
2022/03/05 11:46:46;;;;;;;7.75;7.05;;;7.90;86.80;;;;;;5113175;28;20227;-64
2022/03/05 11:49:16;;;;;;;6.97;6.15;;;7.90;85.40;;;;;;5112698;28;20231;-63
2022/03/05 11:51:54;;;;;;;9.82;7.40;;;7.90;85.40;;;;;;5113006;28;20283;-64
2022/03/05 11:54:20;;;;;;;7.85;7.10;;;8.00;85.80;;;;;;5112767;28;20269;-64
2022/03/05 11:57:04;;;;;;;7.43;6.72;;;8.10;85.80;;;;;;5113032;28;20223;-63
2022/03/05 11:59:34;;;;;;;7.63;6.40;;;8.20;85.60;;;;;;5112708;28;21440;-64
2022/03/05 12:02:01;;;;;;;8.45;7.78;;;8.20;86.00;;;;;;5112897;28;20298;-63
2022/03/05 12:04:30;;;;;;;6.70;6.10;;;8.30;86.30;;;;;;5112335;28;20304;-63
2022/03/05 12:07:03;;;;;;;7.68;6.70;;;8.30;86.30;;;;;;5112961;28;20223;-64
2022/03/05 12:09:35;;;;;;;7.35;6.22;;;8.30;86.10;;;;;;5112510;28;20222;-64
2022/03/05 12:12:02;;;;;;;6.25;5.65;;;8.40;85.10;;;;;;5112830;28;20240;-63
2022/03/05 12:15:06;;;;;;;12.63;7.53;;;8.40;85.40;;;;;;5112464;28;20219;-63
2022/03/05 12:17:35;;;;;;;7.70;6.78;;;8.40;85.40;;;;;;5112557;28;20464;-63
2022/03/05 12:20:04;;;;;;;6.68;6.10;;;8.40;83.60;;;;;;5112845;28;20219;-64
2022/03/05 12:22:32;;;;;;;8.35;6.30;;;8.40;83.50;;;;;;5112111;28;20223;-64
2022/03/05 12:24:59;;;;;;;6.72;6.10;;;8.30;82.40;;;;;;5111679;28;20225;-63
2022/03/05 12:27:29;;;;;;;6.15;5.50;;;8.30;82.70;;;;;;5131003;27;20223;-63
2022/03/05 12:29:57;;;;;;;8.55;6.38;;;8.30;82.80;;;;;;5131272;27;20221;-63
2022/03/05 12:32:31;;;;;;;7.70;6.32;;;8.40;83.30;;;;;;5130861;27;20226;-63
2022/03/05 12:35:08;;;;;;;7.45;6.50;;;8.40;82.30;;;;;;5131401;27;20290;-63
2022/03/05 12:37:35;;;;;;;6.35;5.75;;;8.30;81.10;;;;;;5131232;27;20221;-63
2022/03/05 12:40:04;;;;;;;5.85;5.22;;;8.30;80.80;;;;;;5131323;27;20335;-63
2022/03/05 12:42:38;;;;;;;6.28;5.55;;;8.30;81.00;;;;;;5131746;27;20230;-63
2022/03/05 12:45:06;;;;;;;5.22;4.72;;;8.20;81.30;;;;;;5136094;27;20675;-63
2022/03/05 12:47:33;;;;;;;5.13;4.63;;;8.20;82.00;;;;;;5136619;27;20221;-63
2022/03/05 12:50:20;;;;;;;6.18;5.68;;;8.20;81.40;;;;;;5131796;27;20283;-63
2022/03/05 12:52:59;;;;;;;5.25;4.75;;;8.20;81.50;;;;;;5113974;27;20226;-63
2022/03/05 12:55:28;;;;;;;6.72;6.03;;;8.20;81.90;;;;;;5115755;27;20211;-64
2022/03/05 12:57:58;;;;;;;6.18;5.40;;;8.20;81.00;;;;;;5116167;27;20215;-64